Vattmanville, Texas
Current Conditions -  °F | °C
As of 3:56 PM on Tuesday 21 Oct 2014 (Local Time) from KNQI Reporting Station
Broken Clouds Broken Clouds  
Wind Chill: 83°   Ceiling: 25000
Heat Index: 87°   Visibility: 10mi
Dew Point: 70°   Wind: 16mph
Humidity: 65%   Direction: 80°E
Pressure: 29.92"   Gusts: NA
Location:  27.3193°N, 97.8839°W
Report Text: KNQI 212056Z 08014KT 10SM FEW046 SCT065 SCT090 BKN250 28/21 A2992 RMK AO2 SLP130 CB DSNT S TCU DSNT SE T02830211 56020
Loading
Personal Weather Stations






























Interactive Weather Map
Tropical Storm Tracking
New forecast layout! Learn more

10-Day Weather Forecast

Advertisements
Track Severe Weather on mobile